Time;durP1;ratioP1;P1;durP2;ratioP2;P2;SDS_P1;SDS_P2;PMS_P1;PMS_P2;Temp;Humidity;BMP_temperature;BMP_pressure;BME280_temperature;BME280_humidity;BME280_pressure;Samples;Min_cycle;Max_cycle;Signal;HPM_P1;HPM_P2
2022/04/03 00:01:53;;;;;;;11.60;4.10;;;-1.50;99.90;;;;;;5139989;27;20047;-73
2022/04/03 00:04:19;;;;;;;12.80;4.30;;;-1.50;99.90;;;;;;5158636;27;20046;-73
2022/04/03 00:06:44;;;;;;;11.65;4.25;;;-1.70;99.90;;;;;;5123693;27;20077;-73
2022/04/03 00:09:10;;;;;;;16.77;5.28;;;-1.90;99.90;;;;;;5157887;27;20623;-71
2022/04/03 00:11:36;;;;;;;10.50;3.95;;;-1.90;99.90;;;;;;5157540;27;20717;-71
2022/04/03 00:14:05;;;;;;;14.68;4.40;;;-2.00;99.90;;;;;;5139943;27;20046;-73
2022/04/03 00:16:32;;;;;;;13.88;4.53;;;-2.00;99.90;;;;;;5157932;27;20384;-72
2022/04/03 00:19:00;;;;;;;15.50;4.80;;;-2.10;99.90;;;;;;5100985;27;20126;-72
2022/04/03 00:21:26;;;;;;;14.60;5.00;;;-2.10;99.90;;;;;;5117682;27;20046;-72
2022/04/03 00:23:51;;;;;;;13.90;6.00;;;-2.10;99.90;;;;;;5103150;27;20047;-73
2022/04/03 00:26:17;;;;;;;14.98;5.50;;;-2.10;99.90;;;;;;5137881;27;20053;-72
2022/04/03 00:28:43;;;;;;;16.77;5.93;;;-2.20;99.90;;;;;;5138546;27;20126;-71
2022/04/03 00:31:11;;;;;;;15.60;5.93;;;-2.20;99.90;;;;;;5138388;27;20046;-72
2022/04/03 00:33:37;;;;;;;13.13;5.70;;;-2.20;99.90;;;;;;5120640;27;20470;-72
2022/04/03 00:36:03;;;;;;;17.40;5.70;;;-2.20;99.90;;;;;;5156370;27;20118;-72
2022/04/03 00:38:28;;;;;;;11.77;4.85;;;-2.20;99.90;;;;;;5138167;27;20114;-73
2022/04/03 00:40:55;;;;;;;14.80;5.10;;;-2.20;99.90;;;;;;5155292;27;20058;-72
2022/04/03 00:43:20;;;;;;;13.77;5.20;;;-2.20;99.90;;;;;;5156901;27;20122;-73
2022/04/03 00:45:48;;;;;;;13.07;4.93;;;-2.10;99.90;;;;;;5157656;27;20050;-73
2022/04/03 00:48:14;;;;;;;15.38;4.65;;;-2.00;99.90;;;;;;5140152;27;20129;-72
2022/04/03 00:50:42;;;;;;;20.05;5.53;;;-2.00;99.90;;;;;;5131601;27;20053;-72
2022/04/03 00:53:08;;;;;;;;;;;-2.00;99.90;;;;;;5140942;27;20058;-72
2022/04/03 00:55:35;;;;;;;13.13;4.53;;;-2.00;99.90;;;;;;5157836;27;19919;-72
2022/04/03 00:58:01;;;;;;;13.60;4.70;;;-2.00;99.90;;;;;;5121148;27;20047;-72
2022/04/03 01:00:27;;;;;;;11.85;4.57;;;-2.00;99.90;;;;;;5124137;27;20066;-73
2022/04/03 01:02:53;;;;;;;13.13;4.45;;;-2.10;99.90;;;;;;5129447;27;20082;-73
2022/04/03 01:05:19;;;;;;;12.05;3.75;;;-2.10;99.90;;;;;;5131221;27;20063;-73
2022/04/03 01:07:45;;;;;;;10.35;3.78;;;-2.10;99.90;;;;;;5132624;27;20061;-73
2022/04/03 01:10:10;;;;;;;11.18;3.80;;;-2.20;99.90;;;;;;5165603;27;20074;-72
2022/04/03 01:12:46;;;;;;;14.52;4.30;;;-2.20;99.90;;;;;;5113209;27;20066;-74
2022/04/03 01:15:19;;;;;;;13.73;4.38;;;-2.20;99.90;;;;;;5127382;27;20423;-72
2022/04/03 01:17:45;;;;;;;12.02;4.28;;;-2.10;99.90;;;;;;5158624;27;20372;-72
2022/04/03 01:20:12;;;;;;;11.75;4.10;;;-2.20;99.90;;;;;;5157488;27;20034;-72
2022/04/03 01:22:38;;;;;;;16.05;4.47;;;-2.20;99.90;;;;;;5155665;27;20431;-73
2022/04/03 01:25:05;;;;;;;12.70;4.10;;;-2.20;99.90;;;;;;5154935;27;20045;-73
2022/04/03 01:27:30;;;;;;;10.85;3.92;;;-2.20;99.90;;;;;;5136836;27;20090;-74
2022/04/03 01:29:57;;;;;;;12.20;4.25;;;-2.20;99.90;;;;;;5139558;27;20070;-73
2022/04/03 01:32:24;;;;;;;16.73;4.95;;;-2.20;99.90;;;;;;5155845;27;20031;-72
2022/04/03 01:34:50;;;;;;;12.40;3.97;;;-2.20;99.90;;;;;;5136840;27;20053;-74
2022/04/03 01:37:16;;;;;;;16.00;4.65;;;-2.20;99.90;;;;;;5136747;27;20039;-74
2022/04/03 01:39:42;;;;;;;12.15;4.20;;;-2.10;99.90;;;;;;5153149;27;20039;-72
2022/04/03 01:42:07;;;;;;;9.00;3.70;;;-2.10;99.90;;;;;;5119322;27;20172;-73
2022/04/03 01:44:33;;;;;;;11.27;4.38;;;-2.10;99.90;;;;;;5135921;27;20046;-73
2022/04/03 01:46:59;;;;;;;10.45;4.13;;;-2.10;99.90;;;;;;5136374;27;20042;-73
2022/04/03 01:49:25;;;;;;;12.80;3.80;;;-2.10;99.90;;;;;;5136022;27;20073;-74
2022/04/03 01:51:50;;;;;;;10.27;3.85;;;-2.10;99.90;;;;;;5154297;27;20053;-74
2022/04/03 01:54:16;;;;;;;15.60;4.10;;;-2.10;99.90;;;;;;5151580;27;20417;-73
2022/04/03 01:56:42;;;;;;;15.48;4.43;;;-2.10;99.90;;;;;;5154599;27;20118;-74
2022/04/03 01:59:08;;;;;;;10.43;4.13;;;-2.10;99.90;;;;;;5135618;27;20039;-73
2022/04/03 02:01:34;;;;;;;13.98;4.03;;;-2.10;99.90;;;;;;5118483;27;20046;-73
2022/04/03 02:04:03;;;;;;;13.23;4.57;;;-2.10;99.90;;;;;;5135952;27;20521;-74
2022/04/03 02:06:29;;;;;;;13.98;4.57;;;-2.10;99.90;;;;;;5153776;27;20050;-74
2022/04/03 02:08:55;;;;;;;11.93;4.07;;;-2.10;99.90;;;;;;5134512;27;20066;-75
2022/04/03 02:11:21;;;;;;;16.08;4.10;;;-2.10;99.90;;;;;;5155229;27;20049;-74
2022/04/03 02:13:46;;;;;;;10.57;3.80;;;-2.00;99.90;;;;;;5117760;27;20472;-74
2022/04/03 02:16:13;;;;;;;10.02;3.78;;;-1.90;99.90;;;;;;5135605;27;20320;-74
2022/04/03 02:18:39;;;;;;;13.13;4.32;;;-1.90;99.90;;;;;;5135031;27;20043;-74
2022/04/03 02:21:05;;;;;;;11.00;3.60;;;-1.80;99.90;;;;;;5118601;27;20038;-74
2022/04/03 02:23:30;;;;;;;18.50;4.35;;;-1.80;99.90;;;;;;5153564;27;20035;-75
2022/04/03 02:25:56;;;;;;;16.23;5.20;;;-1.80;99.90;;;;;;5152521;27;20053;-74
2022/04/03 02:28:22;;;;;;;11.60;4.07;;;-1.80;99.90;;;;;;5138090;27;20039;-74
2022/04/03 02:30:49;;;;;;;12.45;3.70;;;-1.80;99.90;;;;;;5136145;27;20047;-73
2022/04/03 02:33:14;;;;;;;13.35;4.57;;;-1.80;99.90;;;;;;5135806;27;20043;-75
2022/04/03 02:35:40;;;;;;;11.93;4.70;;;-1.70;99.90;;;;;;5151971;27;20046;-75
2022/04/03 02:38:07;;;;;;;11.07;3.85;;;-1.70;99.90;;;;;;5153754;27;20046;-75
2022/04/03 02:40:34;;;;;;;13.80;4.18;;;-1.70;99.90;;;;;;5133615;27;20046;-76
2022/04/03 02:42:59;;;;;;;10.63;4.27;;;-1.60;99.90;;;;;;5135056;27;20057;-74
2022/04/03 02:45:25;;;;;;;11.38;4.40;;;-1.70;99.90;;;;;;5100867;27;20284;-75
2022/04/03 02:47:54;;;;;;;11.38;4.78;;;-1.60;99.90;;;;;;5153141;27;20074;-75
2022/04/03 02:50:22;;;;;;;14.45;4.53;;;-1.60;99.90;;;;;;5138001;27;20047;-74
2022/04/03 02:52:49;;;;;;;15.10;5.65;;;-1.60;99.90;;;;;;5132382;27;20039;-75
2022/04/03 02:55:19;;;;;;;15.10;5.22;;;-1.60;99.90;;;;;;5131656;27;20058;-73
2022/04/03 02:57:45;;;;;;;14.05;5.00;;;-1.60;99.90;;;;;;5140150;27;20078;-74
2022/04/03 03:00:15;;;;;;;13.13;4.82;;;-1.60;99.90;;;;;;5134286;27;20578;-73
2022/04/03 03:02:41;;;;;;;13.45;4.57;;;-1.60;99.90;;;;;;5133968;27;20046;-74
2022/04/03 03:05:08;;;;;;;14.13;4.95;;;-1.60;99.90;;;;;;5153222;27;20397;-74
2022/04/03 03:07:38;;;;;;;20.15;5.10;;;-1.50;99.90;;;;;;5153886;27;20070;-75
2022/04/03 03:10:05;;;;;;;13.98;4.90;;;-1.50;99.90;;;;;;5151682;27;20042;-74
2022/04/03 03:12:31;;;;;;;14.95;5.22;;;-1.60;99.90;;;;;;5154176;27;20125;-75
2022/04/03 03:14:56;;;;;;;21.15;5.95;;;-1.60;99.90;;;;;;5152127;27;20162;-75
2022/04/03 03:17:22;;;;;;;17.00;6.18;;;-1.60;99.90;;;;;;5134126;27;20134;-74
2022/04/03 03:19:49;;;;;;;18.27;6.35;;;-1.60;99.90;;;;;;5133270;27;20035;-74
2022/04/03 03:22:14;;;;;;;16.33;5.82;;;-1.70;99.90;;;;;;5134061;27;20039;-74
2022/04/03 03:24:40;;;;;;;15.80;5.40;;;-1.80;99.90;;;;;;5132340;27;20049;-74
2022/04/03 03:27:06;;;;;;;14.77;5.97;;;-1.80;99.90;;;;;;5152935;27;20208;-74
2022/04/03 03:29:32;;;;;;;17.00;6.63;;;-1.90;99.90;;;;;;5117606;28;20042;-75
2022/04/03 03:31:58;;;;;;;15.30;6.13;;;-1.90;99.90;;;;;;5143280;27;20042;-75
2022/04/03 03:34:23;;;;;;;18.42;6.22;;;-1.90;99.90;;;;;;5134017;27;20069;-75
2022/04/03 03:36:49;;;;;;;15.18;6.57;;;-1.90;99.90;;;;;;5138953;27;20074;-75
2022/04/03 03:39:16;;;;;;;19.40;6.88;;;-1.90;99.90;;;;;;5112239;28;20400;-75
2022/04/03 03:41:42;;;;;;;17.35;6.63;;;-1.90;99.90;;;;;;5096500;28;20415;-75
2022/04/03 03:44:10;;;;;;;22.63;7.68;;;-1.80;99.90;;;;;;5131556;28;20043;-75
2022/04/03 03:46:40;;;;;;;21.20;6.35;;;-1.80;99.90;;;;;;5132277;28;20051;-75
2022/04/03 03:49:07;;;;;;;19.98;7.00;;;-1.70;99.90;;;;;;5131704;28;20161;-75
2022/04/03 03:51:36;;;;;;;21.42;7.70;;;-1.60;99.90;;;;;;5096965;28;20071;-75
2022/04/03 03:54:03;;;;;;;19.33;7.80;;;-1.50;99.90;;;;;;5111437;28;20049;-75
2022/04/03 03:56:29;;;;;;;24.30;7.90;;;-1.40;99.90;;;;;;5131798;28;20042;-75
2022/04/03 03:58:55;;;;;;;20.33;8.68;;;-1.30;99.90;;;;;;5112704;28;20070;-75
2022/04/03 04:01:22;;;;;;;21.95;7.43;;;-1.20;99.90;;;;;;5113482;28;20133;-74
2022/04/03 04:03:48;;;;;;;23.35;8.07;;;-1.10;99.90;;;;;;5096282;28;20067;-74
2022/04/03 04:06:14;;;;;;;20.60;8.18;;;-1.00;99.90;;;;;;5124076;27;20081;-74
2022/04/03 04:08:40;;;;;;;29.52;8.32;;;-1.00;99.90;;;;;;5134202;27;20047;-73
2022/04/03 04:11:06;;;;;;;19.85;7.70;;;-0.90;99.90;;;;;;5131833;27;20076;-74
2022/04/03 04:13:32;;;;;;;26.30;7.32;;;-0.80;99.90;;;;;;5151586;27;20070;-74
2022/04/03 04:15:58;;;;;;;22.20;7.60;;;-0.80;99.90;;;;;;5099094;27;20051;-75
2022/04/03 04:18:24;;;;;;;19.52;7.63;;;-0.70;99.90;;;;;;5120328;28;20055;-75
2022/04/03 04:20:53;;;;;;;17.75;6.80;;;-0.60;99.90;;;;;;5131202;28;20043;-75
2022/04/03 04:23:19;;;;;;;19.42;7.07;;;-0.60;99.90;;;;;;5131591;28;20126;-75
2022/04/03 04:25:46;;;;;;;19.77;7.45;;;-0.50;99.90;;;;;;5122044;27;20367;-76
2022/04/03 04:28:11;;;;;;;21.00;7.38;;;-0.50;99.90;;;;;;5151177;27;20047;-74
2022/04/03 04:30:38;;;;;;;17.55;6.80;;;-0.40;99.90;;;;;;5152080;27;20499;-74
2022/04/03 04:33:06;;;;;;;21.20;7.22;;;-0.40;99.90;;;;;;5155417;27;20394;-75
2022/04/03 04:35:34;;;;;;;18.88;7.25;;;-0.30;99.90;;;;;;5155885;27;20073;-75
2022/04/03 04:37:59;;;;;;;21.05;7.25;;;-0.20;99.90;;;;;;5155838;27;20181;-73
2022/04/03 04:40:25;;;;;;;19.73;7.03;;;-0.20;99.90;;;;;;5136110;27;20509;-74
2022/04/03 04:42:51;;;;;;;18.48;6.95;;;-0.20;99.90;;;;;;5137250;27;20160;-74
2022/04/03 04:45:17;;;;;;;16.48;6.88;;;-0.10;99.90;;;;;;5099611;27;20054;-74
2022/04/03 04:47:43;;;;;;;18.67;7.50;;;0.00;99.90;;;;;;5116890;27;20077;-74
2022/04/03 04:50:11;;;;;;;30.38;8.27;;;0.00;99.90;;;;;;5129934;27;20069;-74
2022/04/03 04:52:38;;;;;;;19.25;7.30;;;-0.10;99.90;;;;;;5137645;27;20043;-74
2022/04/03 04:55:06;;;;;;;20.27;7.88;;;0.00;99.90;;;;;;5135968;27;20048;-74
2022/04/03 04:57:36;;;;;;;23.30;7.70;;;0.00;99.90;;;;;;5137178;27;20050;-74
2022/04/03 05:00:09;;;;;;;19.80;7.82;;;0.00;99.90;;;;;;5154779;27;20144;-74
2022/04/03 05:02:35;;;;;;;24.60;7.00;;;0.10;99.90;;;;;;5137804;27;20095;-74
2022/04/03 05:05:00;;;;;;;19.27;7.03;;;0.10;99.90;;;;;;5136629;27;20130;-74
2022/04/03 05:07:27;;;;;;;18.38;6.20;;;0.10;99.90;;;;;;5155483;27;20050;-74
2022/04/03 05:09:53;;;;;;;18.23;7.00;;;0.00;99.90;;;;;;5124738;27;20103;-74
2022/04/03 05:12:20;;;;;;;19.70;6.45;;;-0.10;99.90;;;;;;5143946;27;20371;-73
2022/04/03 05:14:47;;;;;;;17.00;5.68;;;-0.10;99.90;;;;;;5140403;27;20059;-73
2022/04/03 05:17:13;;;;;;;14.18;5.50;;;-0.20;99.90;;;;;;5166331;27;20055;-73
2022/04/03 05:19:39;;;;;;;18.23;6.75;;;-0.20;99.90;;;;;;5133648;27;20046;-73
2022/04/03 05:22:05;;;;;;;13.50;5.22;;;-0.30;99.90;;;;;;5148160;27;20110;-73
2022/04/03 05:24:30;;;;;;;17.83;5.32;;;-0.40;99.90;;;;;;5146877;27;20082;-73
2022/04/03 05:26:56;;;;;;;15.20;5.28;;;-0.50;99.90;;;;;;5165253;27;20157;-74
2022/04/03 05:29:23;;;;;;;16.00;5.38;;;-0.50;99.90;;;;;;5141714;27;20047;-74
2022/04/03 05:31:49;;;;;;;20.77;6.53;;;-0.50;99.90;;;;;;5145351;27;20070;-73
2022/04/03 05:34:15;;;;;;;18.50;6.32;;;-0.50;99.90;;;;;;5164752;27;20042;-74
2022/04/03 05:36:41;;;;;;;29.02;8.93;;;-0.50;99.90;;;;;;5164074;27;20447;-73
2022/04/03 05:39:06;;;;;;;34.92;9.52;;;-0.60;99.90;;;;;;5155393;27;20130;-74
2022/04/03 05:41:35;;;;;;;28.02;8.07;;;-0.60;99.90;;;;;;5136840;27;20111;-73
2022/04/03 05:44:01;;;;;;;23.08;6.88;;;-0.60;99.90;;;;;;5118120;27;20050;-75
2022/04/03 05:46:28;;;;;;;22.88;6.93;;;-0.60;99.90;;;;;;5135209;27;20516;-74
2022/04/03 05:48:53;;;;;;;17.97;5.80;;;-0.70;99.90;;;;;;5135357;27;20047;-74
2022/04/03 05:51:19;;;;;;;19.55;6.45;;;-0.60;99.90;;;;;;5154589;27;20395;-73
2022/04/03 05:53:45;;;;;;;15.23;5.80;;;-0.70;99.90;;;;;;5118399;27;20077;-73
2022/04/03 05:56:11;;;;;;;17.92;6.13;;;-0.70;99.90;;;;;;5134842;27;20050;-73
2022/04/03 05:58:37;;;;;;;16.85;6.03;;;-0.70;99.90;;;;;;5154301;27;20054;-73
2022/04/03 06:01:03;;;;;;;15.45;6.28;;;-0.70;99.90;;;;;;5153292;27;20047;-73
2022/04/03 06:03:28;;;;;;;23.40;6.43;;;-0.70;99.90;;;;;;5154172;27;20046;-73
2022/04/03 06:05:54;;;;;;;22.17;7.60;;;-0.70;99.90;;;;;;5153461;27;20038;-74
2022/04/03 06:08:20;;;;;;;17.52;7.20;;;-0.70;99.90;;;;;;5135710;27;20485;-72
2022/04/03 06:10:45;;;;;;;19.52;7.75;;;-0.70;99.90;;;;;;5151453;27;20126;-72
2022/04/03 06:13:14;;;;;;;21.13;7.80;;;-0.70;99.90;;;;;;5134554;27;20146;-73
2022/04/03 06:15:43;;;;;;;16.83;6.78;;;-0.60;99.90;;;;;;5153871;27;20197;-72
2022/04/03 06:18:11;;;;;;;19.60;7.30;;;-0.60;99.90;;;;;;5153067;27;20047;-72
2022/04/03 06:20:37;;;;;;;17.90;6.88;;;-0.60;99.90;;;;;;5153757;27;20091;-73
2022/04/03 06:23:09;;;;;;;18.25;6.32;;;-0.50;99.90;;;;;;5154425;27;20119;-71
2022/04/03 06:25:35;;;;;;;14.55;6.10;;;-0.50;99.90;;;;;;5152982;27;20043;-73
2022/04/03 06:28:01;;;;;;;16.67;5.90;;;-0.40;99.90;;;;;;5152308;27;20051;-72
2022/04/03 06:30:27;;;;;;;15.15;5.85;;;-0.30;99.90;;;;;;5153038;27;20049;-73
2022/04/03 06:32:53;;;;;;;13.00;5.20;;;-0.20;99.90;;;;;;5135182;27;20038;-72
2022/04/03 06:35:18;;;;;;;15.73;5.68;;;-0.20;99.90;;;;;;5134480;27;20043;-72
2022/04/03 06:37:44;;;;;;;14.60;5.22;;;0.00;99.90;;;;;;5153818;27;20081;-73
2022/04/03 06:40:10;;;;;;;15.55;5.63;;;0.10;99.90;;;;;;5133474;27;20088;-73
2022/04/03 06:42:36;;;;;;;19.02;5.95;;;0.10;99.90;;;;;;5135374;27;20090;-73
2022/04/03 06:45:03;;;;;;;23.63;7.72;;;0.30;99.90;;;;;;5152010;27;20043;-71
2022/04/03 06:47:30;;;;;;;28.15;8.52;;;0.40;99.90;;;;;;5153625;27;20129;-71
2022/04/03 06:49:56;;;;;;;27.70;7.75;;;0.40;99.90;;;;;;5134680;27;20062;-73
2022/04/03 06:52:22;;;;;;;16.60;5.75;;;0.50;99.90;;;;;;5152467;27;20050;-72
2022/04/03 06:54:48;;;;;;;13.38;4.45;;;0.70;99.90;;;;;;5133335;27;20062;-71
2022/04/03 06:57:14;;;;;;;13.27;4.00;;;0.90;99.90;;;;;;5152988;27;20054;-71
2022/04/03 06:59:43;;;;;;;9.23;4.57;;;1.20;99.90;;;;;;5113791;27;20058;-72
2022/04/03 07:02:09;;;;;;;13.27;4.30;;;1.50;99.90;;;;;;5114127;27;20043;-72
2022/04/03 07:04:36;;;;;;;11.02;4.07;;;1.70;99.90;;;;;;5114040;27;20055;-73
2022/04/03 07:07:02;;;;;;;12.30;3.80;;;1.90;99.90;;;;;;5113986;27;20059;-72
2022/04/03 07:09:28;;;;;;;10.48;4.40;;;2.00;99.90;;;;;;5138507;27;20038;-73
2022/04/03 07:11:54;;;;;;;7.65;3.38;;;2.20;99.90;;;;;;5152070;27;20038;-72
2022/04/03 07:14:22;;;;;;;10.63;3.50;;;2.40;99.90;;;;;;5117042;27;20058;-74
2022/04/03 07:16:48;;;;;;;10.95;3.17;;;2.50;99.90;;;;;;5135116;27;20141;-75
2022/04/03 07:19:14;;;;;;;11.45;2.90;;;2.60;99.90;;;;;;5136295;27;20053;-75
2022/04/03 07:21:40;;;;;;;12.70;3.20;;;2.80;99.90;;;;;;5162707;27;20070;-73
2022/04/03 07:24:06;;;;;;;10.98;2.80;;;2.90;99.90;;;;;;5163366;27;20519;-72
2022/04/03 07:26:33;;;;;;;7.05;2.50;;;3.10;99.90;;;;;;5143300;27;20041;-72
2022/04/03 07:28:59;;;;;;;8.18;3.05;;;3.20;99.90;;;;;;5142653;27;20263;-73
2022/04/03 07:31:25;;;;;;;11.70;2.45;;;3.40;99.90;;;;;;5128118;27;20047;-72
2022/04/03 07:33:51;;;;;;;8.13;2.50;;;3.60;99.90;;;;;;5143581;27;20046;-72
2022/04/03 07:36:19;;;;;;;7.22;2.65;;;3.70;99.90;;;;;;5172023;27;20073;-74
2022/04/03 07:38:44;;;;;;;8.90;2.47;;;3.90;99.90;;;;;;5094876;27;20053;-74
2022/04/03 07:41:10;;;;;;;9.00;2.63;;;4.10;99.90;;;;;;5143217;27;20051;-72
2022/04/03 07:43:37;;;;;;;7.78;2.10;;;4.10;99.90;;;;;;5160733;27;20513;-71
2022/04/03 07:46:03;;;;;;;14.35;2.00;;;4.10;99.90;;;;;;5126435;27;20045;-72
2022/04/03 07:48:29;;;;;;;7.90;2.42;;;4.00;99.90;;;;;;5162979;27;20034;-73
2022/04/03 07:50:55;;;;;;;9.05;2.90;;;4.10;99.90;;;;;;5122500;28;20503;-73
2022/04/03 07:53:22;;;;;;;9.15;2.47;;;4.20;99.90;;;;;;5104292;27;20043;-73
2022/04/03 07:55:48;;;;;;;12.57;2.80;;;4.30;99.90;;;;;;5141312;27;20112;-73
2022/04/03 07:58:14;;;;;;;6.80;2.22;;;4.50;99.90;;;;;;5158883;27;20380;-73
2022/04/03 08:00:39;;;;;;;12.52;1.70;;;4.60;99.90;;;;;;5158276;27;20097;-72
2022/04/03 08:03:05;;;;;;;7.03;2.17;;;4.80;99.90;;;;;;5136223;27;20439;-73
2022/04/03 08:05:31;;;;;;;8.32;1.77;;;4.90;99.90;;;;;;5137049;27;20082;-74
2022/04/03 08:07:58;;;;;;;3.08;1.10;;;5.00;99.90;;;;;;5144131;27;20046;-73
2022/04/03 08:10:24;;;;;;;9.40;1.58;;;5.10;99.90;;;;;;5131218;27;20111;-74
2022/04/03 08:12:50;;;;;;;6.37;1.57;;;5.10;99.90;;;;;;5147243;27;20431;-72
2022/04/03 08:15:17;;;;;;;8.60;1.50;;;5.10;99.90;;;;;;5165186;27;20051;-72
2022/04/03 08:17:43;;;;;;;6.72;1.60;;;5.20;99.90;;;;;;5128404;27;20125;-72
2022/04/03 08:20:18;;;;;;;6.80;1.05;;;5.30;99.90;;;;;;5143799;27;20047;-73
2022/04/03 08:22:45;;;;;;;9.93;1.50;;;5.30;99.90;;;;;;5139562;27;20089;-74
2022/04/03 08:25:12;;;;;;;6.15;1.00;;;5.30;99.90;;;;;;5159424;27;20084;-72
2022/04/03 08:27:42;;;;;;;;;;;5.30;99.90;;;;;;5140763;27;20229;-72
2022/04/03 08:30:13;;;;;;;5.15;0.90;;;5.50;99.90;;;;;;5121613;27;19926;-72
2022/04/03 08:32:40;;;;;;;8.20;1.38;;;5.30;99.90;;;;;;5140660;27;20042;-72
2022/04/03 08:35:07;;;;;;;6.05;1.20;;;5.40;99.90;;;;;;5142082;27;20069;-74
2022/04/03 08:37:32;;;;;;;5.83;1.20;;;5.40;99.90;;;;;;5124921;27;20390;-73
2022/04/03 08:39:58;;;;;;;7.53;1.40;;;5.50;99.90;;;;;;5159680;27;20054;-73
2022/04/03 08:42:24;;;;;;;7.10;1.33;;;5.50;99.90;;;;;;5141959;27;20169;-73
2022/04/03 08:44:50;;;;;;;8.68;1.67;;;5.50;99.90;;;;;;5103932;27;20047;-74
2022/04/03 08:47:20;;;;;;;5.65;1.13;;;5.80;99.90;;;;;;5121705;27;20561;-72
2022/04/03 08:49:47;;;;;;;5.13;1.25;;;6.00;99.90;;;;;;5125996;27;20466;-73
2022/04/03 08:52:13;;;;;;;8.05;1.02;;;6.40;99.90;;;;;;5127128;27;20054;-73
2022/04/03 08:54:40;;;;;;;10.75;1.15;;;6.50;99.90;;;;;;5091326;27;20054;-74
2022/04/03 08:57:07;;;;;;;8.55;1.10;;;6.60;99.90;;;;;;5142537;27;20043;-72
2022/04/03 08:59:34;;;;;;;8.50;1.20;;;6.50;99.90;;;;;;5140088;27;20043;-72
2022/04/03 09:01:59;;;;;;;3.92;0.90;;;6.20;99.90;;;;;;5124712;27;20046;-72
2022/04/03 09:04:27;;;;;;;5.90;1.00;;;6.30;99.90;;;;;;5142402;27;20065;-72
2022/04/03 09:06:57;;;;;;;6.03;1.10;;;6.20;99.90;;;;;;5160591;27;20038;-72
2022/04/03 09:09:24;;;;;;;5.03;1.00;;;6.40;99.90;;;;;;5161451;27;20073;-72
2022/04/03 09:12:07;;;;;;;8.07;0.98;;;6.60;99.90;;;;;;5127909;27;20046;-72
2022/04/03 09:14:34;;;;;;;4.32;0.93;;;6.80;99.90;;;;;;5161197;27;20515;-72
2022/04/03 09:17:01;;;;;;;11.30;1.30;;;6.60;99.90;;;;;;5139799;27;20093;-73
2022/04/03 09:19:34;;;;;;;4.90;1.02;;;6.70;99.90;;;;;;5158456;27;20107;-73
2022/04/03 09:22:01;;;;;;;5.45;0.80;;;6.80;99.90;;;;;;5125088;27;20043;-72
2022/04/03 09:24:27;;;;;;;7.22;0.80;;;;;;;;;;5127846;27;20586;-72
2022/04/03 09:27:01;;;;;;;4.07;0.80;;;6.80;99.90;;;;;;5163751;27;20051;-72
2022/04/03 09:29:27;;;;;;;7.43;1.33;;;6.80;99.90;;;;;;5162669;27;20055;-73
2022/04/03 09:32:01;;;;;;;3.85;0.63;;;7.00;99.90;;;;;;5143990;27;20533;-72
2022/04/03 09:34:29;;;;;;;5.28;0.80;;;6.80;99.90;;;;;;5140466;27;20054;-71
2022/04/03 09:37:01;;;;;;;7.97;0.90;;;6.80;99.90;;;;;;5164801;27;20065;-72
2022/04/03 09:39:29;;;;;;;4.68;0.90;;;6.80;99.90;;;;;;5166513;27;20062;-71
2022/04/03 09:42:04;;;;;;;16.40;1.10;;;6.60;99.90;;;;;;5145824;27;20117;-72
2022/04/03 09:44:42;;;;;;;9.70;2.90;;;6.70;99.90;;;;;;5165319;27;20035;-72
2022/04/03 09:47:26;;;;;;;7.85;1.42;;;6.50;99.90;;;;;;5128517;27;20482;-75
2022/04/03 09:50:04;;;;;;;4.35;0.70;;;6.70;99.90;;;;;;5163213;27;20042;-73
2022/04/03 09:52:41;;;;;;;7.63;1.60;;;6.60;99.90;;;;;;5142764;27;20084;-72
2022/04/03 09:55:07;;;;;;;;;;;6.60;99.90;;;;;;5146562;27;20055;-73
2022/04/03 09:57:33;;;;;;;5.47;0.70;;;6.50;99.90;;;;;;5163880;27;19926;-72
2022/04/03 09:59:59;;;;;;;4.57;0.80;;;6.30;99.90;;;;;;5145880;27;20042;-72
2022/04/03 10:02:25;;;;;;;5.55;0.70;;;6.40;99.90;;;;;;5145771;27;20046;-73
2022/04/03 10:04:55;;;;;;;6.35;1.10;;;6.40;99.90;;;;;;5145299;27;20498;-73
2022/04/03 10:07:22;;;;;;;6.85;0.90;;;6.70;99.90;;;;;;5120302;27;20386;-72
2022/04/03 10:09:51;;;;;;;4.30;0.70;;;6.90;99.90;;;;;;5123166;27;20038;-72
2022/04/03 10:12:26;;;;;;;5.50;1.33;;;7.30;99.90;;;;;;5145761;27;20058;-72
2022/04/03 10:14:52;;;;;;;5.53;1.00;;;7.40;99.90;;;;;;5164664;27;20051;-71
2022/04/03 10:17:19;;;;;;;4.05;0.90;;;7.80;99.90;;;;;;5142443;27;20137;-72
2022/04/03 10:19:45;;;;;;;;;;;8.00;99.90;;;;;;5127397;27;20047;-70
2022/04/03 10:22:19;;;;;;;3.38;0.55;;;8.20;99.90;;;;;;5143942;27;19935;-71
2022/04/03 10:24:53;;;;;;;3.40;1.00;;;8.40;99.90;;;;;;5124525;27;20050;-71
2022/04/03 10:27:24;;;;;;;3.13;0.80;;;8.20;99.90;;;;;;5118761;27;20075;-72
2022/04/03 10:29:54;;;;;;;4.82;0.88;;;8.10;99.90;;;;;;5163022;27;20076;-72
2022/04/03 10:32:27;;;;;;;4.78;0.90;;;7.60;99.90;;;;;;5145904;27;20043;-71
2022/04/03 10:34:57;;;;;;;6.30;1.77;;;7.60;99.90;;;;;;5144353;27;20382;-72
2022/04/03 10:37:24;;;;;;;2.70;0.68;;;7.60;99.90;;;;;;5146170;27;20039;-71
2022/04/03 10:40:04;;;;;;;4.00;0.70;;;7.30;99.90;;;;;;5163602;27;20466;-72
2022/04/03 10:42:30;;;;;;;5.68;0.80;;;7.60;99.90;;;;;;5165642;27;20049;-73
2022/04/03 10:45:23;;;;;;;2.42;0.40;;;7.60;99.90;;;;;;5145477;27;20157;-74
2022/04/03 10:47:49;;;;;;;2.38;0.50;;;7.80;99.90;;;;;;5151078;27;20405;-72
2022/04/03 10:50:15;;;;;;;4.18;0.52;;;7.80;99.90;;;;;;5144444;27;20050;-72
2022/04/03 10:52:41;;;;;;;4.07;0.52;;;7.80;99.90;;;;;;5144092;27;20478;-72
2022/04/03 10:55:20;;;;;;;4.50;0.40;;;7.50;99.90;;;;;;5144791;27;20039;-71
2022/04/03 10:57:50;;;;;;;1.23;0.40;;;7.60;99.90;;;;;;5135295;27;20559;-73
2022/04/03 11:00:16;;;;;;;6.07;0.55;;;7.40;99.90;;;;;;5135665;27;20494;-74
2022/04/03 11:02:51;;;;;;;3.42;0.55;;;7.40;99.90;;;;;;5141908;27;20083;-72
2022/04/03 11:05:29;;;;;;;4.90;0.70;;;7.20;99.90;;;;;;5126114;27;20178;-71
2022/04/03 11:08:01;;;;;;;5.15;0.50;;;6.90;99.90;;;;;;5165530;27;20043;-72
2022/04/03 11:10:48;;;;;;;4.85;0.60;;;6.70;99.90;;;;;;5163882;27;20061;-72
2022/04/03 11:13:17;;;;;;;2.15;0.40;;;6.50;99.90;;;;;;5143956;27;20042;-72
2022/04/03 11:15:45;;;;;;;2.35;0.50;;;6.30;99.90;;;;;;5145455;27;20158;-73
2022/04/03 11:18:34;;;;;;;1.85;0.60;;;6.50;99.90;;;;;;5165684;27;20098;-71
2022/04/03 11:21:26;;;;;;;3.45;0.40;;;6.50;99.90;;;;;;5162450;27;20050;-71
2022/04/03 11:24:03;;;;;;;3.38;0.40;;;6.60;99.90;;;;;;5126266;27;20339;-73
2022/04/03 11:26:29;;;;;;;;;;;6.70;99.90;;;;;;5131262;27;20053;-72
2022/04/03 11:28:55;;;;;;;4.00;0.50;;;6.80;99.90;;;;;;5161498;27;19962;-72
2022/04/03 11:31:22;;;;;;;4.53;0.52;;;7.00;99.90;;;;;;5161305;27;20501;-74
2022/04/03 11:33:48;;;;;;;2.65;0.50;;;7.00;99.90;;;;;;5149363;27;20051;-73
2022/04/03 11:36:17;;;;;;;8.07;0.70;;;7.30;99.90;;;;;;5150206;27;20054;-72
2022/04/03 11:38:53;;;;;;;3.60;0.50;;;7.30;99.90;;;;;;5146134;27;20055;-73
2022/04/03 11:41:22;;;;;;;3.92;0.50;;;7.30;99.90;;;;;;5128130;27;20076;-72
2022/04/03 11:44:00;;;;;;;4.38;0.85;;;7.40;99.90;;;;;;5147349;27;20046;-72
2022/04/03 11:46:31;;;;;;;5.97;0.80;;;7.40;99.90;;;;;;5134349;27;20042;-72
2022/04/03 11:48:57;;;;;;;2.88;0.60;;;7.40;99.90;;;;;;5167847;27;20061;-72
2022/04/03 11:51:23;;;;;;;1.60;0.35;;;7.40;99.90;;;;;;5147970;27;20050;-73
2022/04/03 11:54:00;;;;;;;2.33;0.40;;;7.40;99.90;;;;;;5130001;27;20528;-73
2022/04/03 11:56:31;;;;;;;2.30;0.50;;;7.60;99.90;;;;;;5165432;27;20043;-73
2022/04/03 11:58:58;;;;;;;2.70;0.40;;;7.60;99.90;;;;;;5130893;27;20042;-72
2022/04/03 12:01:34;;;;;;;1.65;0.30;;;7.60;99.90;;;;;;5171568;27;20072;-73
2022/04/03 12:04:13;;;;;;;2.42;0.50;;;7.60;99.90;;;;;;5159544;27;20078;-73
2022/04/03 12:06:42;;;;;;;2.28;0.40;;;7.60;99.90;;;;;;5160132;27;20043;-73
2022/04/03 12:09:13;;;;;;;2.55;0.50;;;7.40;99.90;;;;;;5176680;27;20053;-74
2022/04/03 12:11:41;;;;;;;1.83;0.45;;;7.30;99.90;;;;;;5141532;27;20034;-74
2022/04/03 12:14:09;;;;;;;3.78;0.60;;;7.20;99.90;;;;;;5174667;27;20110;-73
2022/04/03 12:16:39;;;;;;;4.40;0.47;;;7.30;99.90;;;;;;5157444;27;20149;-74
2022/04/03 12:19:25;;;;;;;3.75;0.55;;;7.40;99.90;;;;;;5175006;27;20050;-72
2022/04/03 12:22:00;;;;;;;2.90;0.60;;;7.40;99.90;;;;;;5170078;27;20062;-73
2022/04/03 12:24:28;;;;;;;5.45;0.80;;;7.70;99.90;;;;;;5124945;27;20054;-72
2022/04/03 12:26:59;;;;;;;4.28;0.70;;;7.80;99.90;;;;;;5161611;27;20053;-72
2022/04/03 12:29:26;;;;;;;4.72;0.50;;;8.10;99.90;;;;;;5147601;27;20099;-72
2022/04/03 12:32:07;;;;;;;3.97;0.88;;;8.10;99.90;;;;;;5108367;27;20047;-71
2022/04/03 12:34:35;;;;;;;5.60;1.17;;;8.10;99.90;;;;;;5122132;27;20056;-73
2022/04/03 12:37:02;;;;;;;3.42;0.82;;;8.10;99.90;;;;;;5159360;27;20046;-72
2022/04/03 12:39:48;;;;;;;;;;;8.10;99.90;;;;;;5140549;27;20406;-73
2022/04/03 12:42:35;;;;;;;5.20;1.10;;;7.90;99.90;;;;;;5159245;27;19926;-73
2022/04/03 12:45:17;;;;;;;2.08;0.60;;;7.60;99.90;;;;;;5138670;27;20389;-73
2022/04/03 12:47:47;;;;;;;1.27;0.30;;;7.80;99.90;;;;;;5137102;27;20031;-72
2022/04/03 12:50:18;;;;;;;1.52;0.30;;;7.80;99.90;;;;;;5157115;27;20056;-73
2022/04/03 12:52:52;;;;;;;8.73;2.17;;;7.90;99.90;;;;;;5137535;27;20038;-72